Time;durP1;ratioP1;P1;durP2;ratioP2;P2;SDS_P1;SDS_P2;PMS_P1;PMS_P2;Temp;Humidity;BMP_temperature;BMP_pressure;BME280_temperature;BME280_humidity;BME280_pressure;Samples;Min_cycle;Max_cycle;Signal;HPM_P1;HPM_P2
2023/05/05 00:04:24;;;;;;;12.38;4.28;;;;;;;9.90;100.00;101544.69;10336751;28;20076;-72
2023/05/05 00:09:24;;;;;;;11.48;4.45;;;;;;;9.88;100.00;101538.56;10352295;28;20030;-72
2023/05/05 00:14:26;;;;;;;12.15;3.95;;;;;;;9.85;100.00;101535.44;10352518;28;20529;-71
2023/05/05 00:19:26;;;;;;;10.20;4.13;;;;;;;9.79;100.00;101523.47;10337369;28;20038;-72
2023/05/05 00:24:27;;;;;;;8.40;3.88;;;;;;;9.69;100.00;101529.53;10353260;28;20490;-72
2023/05/05 00:29:27;;;;;;;6.85;3.42;;;;;;;9.60;100.00;101519.09;10367611;28;20889;-72
2023/05/05 00:34:28;;;;;;;13.60;3.92;;;;;;;9.65;100.00;101519.22;10332333;28;20069;-73
2023/05/05 00:39:29;;;;;;;17.00;5.80;;;;;;;9.63;100.00;101513.09;10377357;28;20045;-72
2023/05/05 00:44:34;;;;;;;12.82;5.63;;;;;;;9.61;100.00;101510.63;10412836;28;20501;-72
2023/05/05 00:49:35;;;;;;;13.75;4.43;;;;;;;9.64;100.00;101501.06;10384729;28;20033;-71
2023/05/05 00:54:36;;;;;;;11.55;4.53;;;;;;;9.67;100.00;101500.56;10367942;28;20092;-71
2023/05/05 00:59:36;;;;;;;14.00;4.55;;;;;;;9.61;100.00;101477.63;10383690;28;20181;-72
2023/05/05 01:04:37;;;;;;;19.85;4.97;;;;;;;9.66;100.00;101493.41;10366372;28;20041;-71
2023/05/05 01:09:45;;;;;;;9.95;4.40;;;;;;;9.62;100.00;101475.69;10381891;28;20076;-72
2023/05/05 01:14:56;;;;;;;8.85;4.53;;;;;;;9.61;100.00;101471.25;10384409;28;20041;-72
2023/05/05 01:19:58;;;;;;;16.48;4.30;;;;;;;9.56;100.00;101457.41;10400137;28;20130;-72
2023/05/05 01:25:08;;;;;;;8.43;4.03;;;;;;;9.58;100.00;101460.75;10399618;28;20041;-72
2023/05/05 01:30:26;;;;;;;11.15;5.13;;;;;;;9.55;100.00;101459.31;10416675;28;20042;-71
2023/05/05 01:35:32;;;;;;;14.27;4.72;;;;;;;9.49;100.00;101455.56;10398470;28;20050;-72
2023/05/05 01:40:37;;;;;;;12.57;4.90;;;;;;;9.42;100.00;101435.56;10380994;28;20038;-70
2023/05/05 01:45:38;;;;;;;17.85;5.00;;;;;;;9.28;100.00;101423.09;10399235;28;20037;-72
2023/05/05 01:50:40;;;;;;;16.77;5.70;;;;;;;9.32;100.00;101454.53;10365808;28;20034;-72
2023/05/05 01:55:41;;;;;;;13.57;5.10;;;;;;;9.31;100.00;101444.63;10381564;28;20041;-72
2023/05/05 02:00:41;;;;;;;10.82;4.75;;;;;;;9.30;100.00;101453.91;10382049;28;20084;-72
2023/05/05 02:05:42;;;;;;;11.43;4.65;;;;;;;9.30;100.00;101437.44;10357162;28;20037;-72
2023/05/05 02:10:42;;;;;;;14.80;4.38;;;;;;;9.29;100.00;101435.78;10370547;28;20069;-73
2023/05/05 02:15:43;;;;;;;10.45;5.47;;;;;;;9.23;100.00;101431.19;10398242;28;20091;-72
2023/05/05 02:20:43;;;;;;;11.43;4.30;;;;;;;9.18;100.00;101414.59;10365214;28;20061;-72
2023/05/05 02:25:52;;;;;;;7.85;4.50;;;;;;;9.20;100.00;101428.91;10348125;28;20060;-72
2023/05/05 02:30:56;;;;;;;9.70;4.07;;;;;;;9.22;100.00;101430.38;10363631;28;20081;-72
2023/05/05 02:35:56;;;;;;;9.02;3.97;;;;;;;9.23;100.00;101414.72;10362956;28;20034;-72
2023/05/05 02:40:57;;;;;;;11.82;5.10;;;;;;;9.17;100.00;101396.41;10362844;28;20037;-71
2023/05/05 02:45:57;;;;;;;10.93;4.85;;;;;;;9.30;100.00;101415.44;10379457;28;20091;-72
2023/05/05 02:50:58;;;;;;;12.00;4.32;;;;;;;9.34;100.00;101416.66;10412185;28;20060;-72
2023/05/05 02:56:05;;;;;;;7.05;4.38;;;;;;;9.39;100.00;101419.56;10395995;28;20026;-71
2023/05/05 03:01:20;;;;;;;9.10;4.07;;;;;;;9.40;100.00;101420.41;10369337;28;20049;-72
2023/05/05 03:06:20;;;;;;;11.90;4.93;;;;;;;9.40;100.00;101423.97;10354852;28;20401;-71
2023/05/05 03:11:35;;;;;;;7.72;4.18;;;;;;;9.42;100.00;101413.59;10338136;28;20049;-72
2023/05/05 03:16:35;;;;;;;6.45;3.92;;;;;;;9.47;100.00;101405.50;10338069;28;20545;-71
2023/05/05 03:21:36;;;;;;;8.43;5.55;;;;;;;9.46;100.00;101398.31;10321235;28;20045;-73
2023/05/05 03:26:36;;;;;;;10.40;4.15;;;;;;;9.44;100.00;101375.72;10320659;28;20061;-72
2023/05/05 03:31:37;;;;;;;13.00;4.07;;;;;;;9.53;100.00;101394.63;10344371;28;20041;-72
2023/05/05 03:36:38;;;;;;;6.53;3.80;;;;;;;9.55;100.00;101407.09;10392845;28;20445;-71
2023/05/05 03:41:38;;;;;;;9.80;3.50;;;;;;;9.50;100.00;101413.25;10411538;28;20029;-73
2023/05/05 03:46:39;;;;;;;9.65;3.47;;;;;;;9.42;100.00;101421.00;10360769;28;20033;-69
2023/05/05 03:51:39;;;;;;;6.97;3.42;;;;;;;9.29;100.00;101397.31;10393772;28;20045;-72
2023/05/05 03:56:40;;;;;;;8.25;3.35;;;;;;;9.26;100.00;101408.75;10376033;28;20030;-73
2023/05/05 04:01:40;;;;;;;10.55;3.80;;;;;;;9.18;100.00;101423.66;10361253;28;20478;-72
2023/05/05 04:06:41;;;;;;;9.93;4.13;;;;;;;9.06;100.00;101426.34;10361286;28;20038;-72
2023/05/05 04:11:41;;;;;;;6.53;3.75;;;;;;;9.12;100.00;101432.00;10375388;28;20065;-72
2023/05/05 04:16:42;;;;;;;7.72;3.70;;;;;;;9.11;100.00;101438.53;10409417;28;20084;-72
2023/05/05 04:21:42;;;;;;;8.98;4.13;;;;;;;9.09;100.00;101447.88;10369325;28;20083;-72
2023/05/05 04:26:43;;;;;;;6.15;3.45;;;;;;;9.31;100.00;101461.09;10416913;28;20040;-70
2023/05/05 04:31:43;;;;;;;13.30;3.72;;;;;;;9.55;100.00;101488.69;10369327;28;20509;-72
2023/05/05 04:36:44;;;;;;;5.55;4.07;;;;;;;9.77;100.00;101503.59;10369234;28;20026;-72
2023/05/05 04:41:44;;;;;;;4.53;3.08;;;;;;;9.98;100.00;101507.72;10363162;28;20065;-72
2023/05/05 04:46:46;;;;;;;7.90;3.33;;;;;;;10.06;100.00;101501.06;10359772;28;20065;-72
2023/05/05 04:51:46;;;;;;;7.72;3.67;;;;;;;10.05;100.00;101504.91;10343503;28;20038;-73
2023/05/05 04:56:47;;;;;;;16.63;5.75;;;;;;;9.83;100.00;101480.66;10327116;28;20058;-73
2023/05/05 05:01:47;;;;;;;10.23;5.30;;;;;;;9.80;100.00;101494.06;10355672;28;20060;-74
2023/05/05 05:06:48;;;;;;;9.82;5.25;;;;;;;9.59;100.00;101487.16;10400599;28;20056;-74
2023/05/05 05:11:48;;;;;;;14.25;6.88;;;;;;;9.44;100.00;101523.31;10373825;28;20042;-70
2023/05/05 05:16:51;;;;;;;10.63;5.72;;;;;;;9.37;100.00;101530.81;10343045;28;20068;-73
2023/05/05 05:21:51;;;;;;;10.63;5.55;;;;;;;9.35;100.00;101558.50;10358320;28;20042;-73
2023/05/05 05:26:51;;;;;;;11.50;6.82;;;;;;;9.25;100.00;101549.97;10374128;28;20077;-73
2023/05/05 05:31:52;;;;;;;12.35;6.53;;;;;;;9.16;100.00;101523.88;10358641;28;20041;-72
2023/05/05 05:36:53;;;;;;;11.75;6.95;;;;;;;9.08;100.00;101512.09;10376816;28;20034;-72
2023/05/05 05:41:53;;;;;;;11.55;5.93;;;;;;;9.02;100.00;101525.91;10375007;28;20522;-72
2023/05/05 05:46:53;;;;;;;12.73;6.70;;;;;;;9.14;100.00;101510.34;10356866;28;20038;-72
2023/05/05 05:51:54;;;;;;;12.15;6.10;;;;;;;9.08;100.00;101495.63;10376178;28;20045;-72
2023/05/05 05:56:54;;;;;;;13.13;6.90;;;;;;;9.09;100.00;101478.09;10416192;28;20042;-71
2023/05/05 06:01:55;;;;;;;11.23;6.55;;;;;;;9.30;100.00;101503.38;10364984;28;20060;-70
2023/05/05 06:06:56;;;;;;;12.65;6.22;;;;;;;9.37;100.00;101542.63;10383233;28;20037;-71
2023/05/05 06:11:56;;;;;;;9.23;5.93;;;;;;;9.38;100.00;101555.28;10377952;28;20107;-70
2023/05/05 06:16:57;;;;;;;11.27;6.55;;;;;;;9.36;100.00;101565.66;10372853;28;20038;-70
2023/05/05 06:21:57;;;;;;;11.30;7.15;;;;;;;9.44;100.00;101559.03;10379057;28;20374;-71
2023/05/05 06:27:01;;;;;;;14.77;6.63;;;;;;;9.87;100.00;101574.56;10397776;28;20037;-71
2023/05/05 06:32:02;;;;;;;12.68;6.40;;;;;;;10.13;100.00;101578.84;10416297;28;20029;-71
2023/05/05 06:37:02;;;;;;;12.02;6.53;;;;;;;10.37;100.00;101567.94;10415680;28;20037;-71
2023/05/05 06:42:03;;;;;;;13.07;6.53;;;;;;;10.52;100.00;101578.47;10395135;28;20033;-71
2023/05/05 06:47:03;;;;;;;10.85;6.93;;;;;;;10.65;100.00;101575.53;10405995;28;20034;-71
2023/05/05 06:52:04;;;;;;;12.32;6.07;;;;;;;10.72;100.00;101572.66;10396057;28;20044;-71
2023/05/05 06:57:04;;;;;;;10.32;6.15;;;;;;;10.92;100.00;101586.09;10385936;28;20455;-72
2023/05/05 07:02:05;;;;;;;14.82;5.55;;;;;;;10.97;100.00;101591.69;10396490;28;20056;-71
2023/05/05 07:07:05;;;;;;;10.65;6.18;;;;;;;10.84;100.00;101579.84;10396284;28;20029;-71
2023/05/05 07:12:06;;;;;;;10.35;6.05;;;;;;;10.81;100.00;101583.09;10411892;28;20045;-73
2023/05/05 07:17:06;;;;;;;10.98;5.65;;;;;;;10.89;100.00;101602.00;10411205;28;20057;-72
2023/05/05 07:22:07;;;;;;;11.55;6.18;;;;;;;11.07;100.00;101601.03;10394578;28;20053;-71
2023/05/05 07:27:07;;;;;;;13.98;6.65;;;;;;;11.34;100.00;101596.97;10411707;28;20052;-72
2023/05/05 07:32:08;;;;;;;9.80;6.45;;;;;;;11.52;100.00;101592.13;10395988;28;20040;-71
2023/05/05 07:37:08;;;;;;;12.20;6.85;;;;;;;11.74;100.00;101587.88;10389872;28;20052;-72
2023/05/05 07:42:09;;;;;;;13.07;6.72;;;;;;;11.84;100.00;101599.94;10399602;28;20034;-72
2023/05/05 07:47:10;;;;;;;12.18;6.85;;;;;;;11.89;100.00;101588.22;10361602;28;20060;-72
2023/05/05 07:52:11;;;;;;;10.90;6.22;;;;;;;11.94;100.00;101593.00;10380245;28;20579;-72
2023/05/05 07:57:11;;;;;;;9.20;6.50;;;;;;;12.21;100.00;101599.59;10424732;28;20033;-75
2023/05/05 08:02:12;;;;;;;10.50;6.70;;;;;;;12.47;100.00;101587.09;10406744;28;20034;-72
2023/05/05 08:07:12;;;;;;;11.43;6.70;;;;;;;12.81;100.00;101570.50;10372167;28;20043;-73
2023/05/05 08:12:14;;;;;;;14.20;7.22;;;;;;;13.24;100.00;101580.00;10405471;28;24589;-73
2023/05/05 08:17:14;;;;;;;12.27;6.80;;;;;;;13.55;100.00;101585.13;10389136;28;20512;-72
2023/05/05 08:22:15;;;;;;;12.25;6.30;;;;;;;13.74;100.00;101572.63;10378427;28;20044;-75
2023/05/05 08:27:15;;;;;;;13.23;6.50;;;;;;;14.02;100.00;101590.13;10412023;28;20067;-73
2023/05/05 08:32:16;;;;;;;8.63;6.75;;;;;;;14.29;100.00;101590.97;10406682;28;20038;-73
2023/05/05 08:37:17;;;;;;;10.73;6.32;;;;;;;14.61;100.00;101573.53;10356989;28;20109;-75
2023/05/05 08:42:18;;;;;;;17.40;7.50;;;;;;;14.84;100.00;101582.59;10387937;28;20050;-74
2023/05/05 08:47:18;;;;;;;11.25;6.32;;;;;;;15.13;100.00;101588.63;10423631;28;20099;-75
2023/05/05 08:52:22;;;;;;;9.80;7.05;;;;;;;15.37;100.00;101577.94;10403434;28;20065;-73
2023/05/05 08:57:26;;;;;;;13.02;7.38;;;;;;;15.63;100.00;101578.09;10377554;28;20041;-73
2023/05/05 09:02:28;;;;;;;14.50;7.43;;;;;;;15.82;100.00;101579.28;10373783;28;20041;-73
2023/05/05 09:07:29;;;;;;;13.73;7.72;;;;;;;15.81;100.00;101560.94;10349223;28;20087;-72
2023/05/05 09:12:29;;;;;;;14.25;7.85;;;;;;;15.94;100.00;101566.00;10365810;28;20092;-74
2023/05/05 09:17:30;;;;;;;12.27;7.50;;;;;;;16.39;100.00;101571.94;10366256;28;20045;-73
2023/05/05 09:22:44;;;;;;;11.10;7.70;;;;;;;16.78;100.00;101567.72;10414589;28;20048;-73
2023/05/05 09:27:46;;;;;;;10.95;8.10;;;;;;;16.88;100.00;101559.41;10415080;28;20055;-73
2023/05/05 09:32:51;;;;;;;12.40;7.45;;;;;;;17.08;100.00;101572.47;10398278;28;20048;-75
2023/05/05 09:37:52;;;;;;;15.05;8.00;;;;;;;17.37;100.00;101575.44;10366091;28;20037;-76
2023/05/05 09:42:59;;;;;;;10.70;8.60;;;;;;;17.29;100.00;101562.94;10364827;28;20029;-75
2023/05/05 09:48:00;;;;;;;15.35;9.00;;;;;;;17.60;100.00;101567.56;10379167;28;20121;-74
2023/05/05 09:53:02;;;;;;;13.77;8.90;;;;;;;17.83;100.00;101564.16;10380482;28;20030;-75
2023/05/05 09:58:24;;;;;;;14.00;8.82;;;;;;;17.78;100.00;101558.59;10397878;28;20044;-76
2023/05/05 10:03:24;;;;;;;20.48;9.27;;;;;;;18.30;100.00;101568.31;10381460;28;20037;-75
2023/05/05 10:08:33;;;;;;;15.10;9.57;;;;;;;18.42;100.00;101553.16;10364139;28;20040;-75
2023/05/05 10:13:35;;;;;;;12.10;10.23;;;;;;;18.72;100.00;101575.22;10364581;28;20052;-75
2023/05/05 10:18:35;;;;;;;15.77;9.52;;;;;;;19.14;100.00;101562.59;10322586;28;20072;-75
2023/05/05 10:24:13;;;;;;;16.77;10.13;;;;;;;19.63;100.00;101562.56;10355690;28;20525;-74
2023/05/05 10:29:22;;;;;;;15.45;10.35;;;;;;;19.74;100.00;101544.56;10335353;28;20057;-75
2023/05/05 10:34:28;;;;;;;17.77;10.90;;;;;;;19.98;100.00;101543.69;10327825;28;20061;-76
2023/05/05 10:39:28;;;;;;;19.45;10.98;;;;;;;20.01;100.00;101541.13;10371230;28;20034;-75
2023/05/05 10:44:30;;;;;;;14.38;10.38;;;;;;;20.15;100.00;101542.03;10396352;28;20037;-74
2023/05/05 10:49:34;;;;;;;17.08;11.18;;;;;;;20.85;100.00;101531.94;10364702;28;20045;-74
2023/05/05 10:54:43;;;;;;;16.70;10.48;;;;;;;21.04;100.00;101520.66;10379814;28;20064;-73
2023/05/05 10:59:45;;;;;;;15.25;11.10;;;;;;;20.71;100.00;101526.31;10380619;28;20053;-73
2023/05/05 11:05:13;;;;;;;13.70;11.07;;;;;;;21.09;100.00;101523.38;10374190;28;20064;-73
2023/05/05 11:10:14;;;;;;;13.32;11.43;;;;;;;21.58;100.00;101503.34;10395337;28;20053;-73
2023/05/05 11:15:29;;;;;;;14.80;11.45;;;;;;;21.78;100.00;101519.72;10378631;28;20034;-72
2023/05/05 11:20:35;;;;;;;16.48;11.90;;;;;;;22.04;100.00;101496.72;10409165;28;20065;-72
2023/05/05 11:25:36;;;;;;;17.63;11.98;;;;;;;22.05;100.00;101495.53;10412114;28;20087;-72
2023/05/05 11:30:55;;;;;;;19.58;11.60;;;;;;;22.39;100.00;101489.41;10375961;28;20117;-72
2023/05/05 11:35:59;;;;;;;19.35;12.82;;;;;;;22.61;100.00;101491.34;10410442;28;20056;-73
2023/05/05 11:41:27;;;;;;;17.23;12.38;;;;;;;22.35;100.00;101483.59;10411524;28;20057;-72
2023/05/05 11:46:27;;;;;;;14.10;12.55;;;;;;;22.09;100.00;101479.75;10363582;28;20097;-73
2023/05/05 11:51:28;;;;;;;14.80;12.90;;;;;;;22.38;100.00;101478.50;10362231;28;20038;-73
2023/05/05 11:56:28;;;;;;;15.50;12.30;;;;;;;22.42;100.00;101457.91;10394073;28;20034;-73
2023/05/05 12:01:29;;;;;;;17.05;12.52;;;;;;;21.80;100.00;101398.88;10376490;28;20156;-73
2023/05/05 12:06:32;;;;;;;16.98;12.80;;;;;;;22.22;100.00;101467.66;10412580;28;20056;-73
2023/05/05 12:11:32;;;;;;;19.95;13.05;;;;;;;22.11;100.00;101443.81;10378093;28;20466;-74
2023/05/05 12:16:33;;;;;;;17.60;12.68;;;;;;;22.20;100.00;101458.72;10358277;28;20065;-72
2023/05/05 12:21:33;;;;;;;17.70;13.35;;;;;;;21.95;100.00;101441.41;10376406;28;20072;-73
2023/05/05 12:26:34;;;;;;;15.50;13.80;;;;;;;21.59;100.00;101434.97;10376636;28;20026;-73
2023/05/05 12:31:40;;;;;;;20.45;14.05;;;;;;;21.16;100.00;101436.97;10376820;28;20409;-71
2023/05/05 12:36:41;;;;;;;18.70;13.93;;;;;;;21.12;100.00;101446.31;10410367;28;20041;-75
2023/05/05 12:41:41;;;;;;;15.90;14.20;;;;;;;20.80;100.00;101450.88;10394654;28;20076;-74
2023/05/05 12:46:45;;;;;;;15.82;13.90;;;;;;;20.64;100.00;101453.13;10366941;28;20040;-73
2023/05/05 12:51:53;;;;;;;19.67;14.65;;;;;;;20.39;100.00;101434.00;10384059;28;20037;-73
2023/05/05 12:56:55;;;;;;;17.48;13.98;;;;;;;20.09;100.00;101453.81;10351164;28;20079;-73
2023/05/05 13:02:00;;;;;;;21.10;14.93;;;;;;;19.64;100.00;101441.34;10383291;28;20053;-72
2023/05/05 13:07:10;;;;;;;18.35;15.25;;;;;;;19.17;100.00;101457.06;10384063;28;20029;-73
2023/05/05 13:12:11;;;;;;;19.83;16.13;;;;;;;18.54;100.00;101464.41;10398854;28;20048;-73
2023/05/05 13:17:12;;;;;;;24.95;19.92;;;;;;;17.96;100.00;101470.75;10415239;28;20061;-73
2023/05/05 13:22:12;;;;;;;30.92;21.75;;;;;;;17.38;100.00;101482.47;10399061;28;20037;-70
2023/05/05 13:27:13;;;;;;;31.70;23.13;;;;;;;16.75;100.00;101500.44;10398727;28;20056;-70
2023/05/05 13:32:13;;;;;;;35.35;26.35;;;;;;;16.28;100.00;101529.38;10366073;28;20045;-69
2023/05/05 13:37:14;;;;;;;37.33;27.25;;;;;;;15.83;100.00;101530.97;10380584;28;20097;-68
2023/05/05 13:42:14;;;;;;;34.97;25.90;;;;;;;15.53;100.00;101487.28;10395055;28;20045;-69
2023/05/05 13:47:15;;;;;;;32.38;21.10;;;;;;;15.26;100.00;101479.97;10415562;28;20037;-70
2023/05/05 13:52:17;;;;;;;10.98;8.07;;;;;;;14.90;100.00;101470.63;10414749;28;20041;-70
2023/05/05 13:57:17;;;;;;;10.15;6.15;;;;;;;14.96;100.00;101475.09;10415789;28;20037;-70
2023/05/05 14:02:17;;;;;;;8.43;5.53;;;;;;;14.96;100.00;101486.19;10380949;28;20564;-69
2023/05/05 14:07:18;;;;;;;10.30;7.15;;;;;;;14.88;100.00;101539.38;10414859;28;20044;-70
2023/05/05 14:12:18;;;;;;;12.00;7.93;;;;;;;14.28;100.00;101547.75;10413029;28;20042;-70
2023/05/05 14:17:19;;;;;;;7.47;4.55;;;;;;;13.85;100.00;101552.31;10380074;28;20040;-68
2023/05/05 14:22:19;;;;;;;7.75;4.57;;;;;;;13.39;100.00;101576.63;10414328;28;20053;-72
2023/05/05 14:27:20;;;;;;;7.60;2.65;;;;;;;12.99;100.00;101608.09;10416034;28;20134;-70
2023/05/05 14:32:21;;;;;;;13.88;4.38;;;;;;;12.79;100.00;101589.25;10414418;28;20044;-67
2023/05/05 14:37:22;;;;;;;7.43;3.42;;;;;;;12.64;100.00;101556.69;10395982;28;20052;-67
2023/05/05 14:42:23;;;;;;;8.73;3.40;;;;;;;12.59;100.00;101577.88;10397292;28;20044;-67
2023/05/05 14:47:24;;;;;;;6.40;2.47;;;;;;;12.59;100.00;101581.50;10414910;28;20040;-69
2023/05/05 14:52:25;;;;;;;3.67;1.95;;;;;;;12.72;100.00;101608.78;10413198;28;20061;-68
2023/05/05 14:57:25;;;;;;;5.47;2.58;;;;;;;12.68;100.00;101617.81;10414907;28;20049;-68
2023/05/05 15:02:25;;;;;;;8.70;4.32;;;;;;;12.72;100.00;101616.22;10395190;28;20044;-65
2023/05/05 15:07:29;;;;;;;11.82;5.43;;;;;;;12.63;100.00;101601.16;10414107;28;20041;-68
2023/05/05 15:12:30;;;;;;;13.25;6.80;;;;;;;12.68;100.00;101609.53;10397297;28;20034;-68
2023/05/05 15:17:30;;;;;;;14.10;8.68;;;;;;;12.70;100.00;101623.94;10413344;28;20034;-69
2023/05/05 15:22:31;;;;;;;15.75;9.40;;;;;;;12.70;100.00;101622.00;10413432;28;20045;-68
2023/05/05 15:27:31;;;;;;;10.25;6.20;;;;;;;12.59;100.00;101619.31;10413819;28;20045;-68
2023/05/05 15:32:32;;;;;;;11.80;6.57;;;;;;;12.56;100.00;101612.34;10412584;28;20037;-68
2023/05/05 15:37:32;;;;;;;9.82;4.88;;;;;;;12.39;100.00;101628.09;10393617;28;20551;-68
2023/05/05 15:42:33;;;;;;;8.38;3.10;;;;;;;12.29;100.00;101637.84;10412858;28;20040;-69
2023/05/05 15:47:33;;;;;;;6.00;3.53;;;;;;;12.35;100.00;101649.00;10385285;28;20109;-68
2023/05/05 15:52:34;;;;;;;9.02;5.43;;;;;;;12.43;100.00;101654.13;10402218;28;20161;-67
2023/05/05 15:57:34;;;;;;;10.00;4.72;;;;;;;12.55;100.00;101665.94;10410196;28;20037;-68
2023/05/05 16:02:35;;;;;;;6.05;3.30;;;;;;;12.70;100.00;101657.91;10394831;28;20032;-68
2023/05/05 16:07:35;;;;;;;8.45;2.70;;;;;;;12.74;100.00;101654.66;10393236;28;20033;-67
2023/05/05 16:12:36;;;;;;;9.32;3.90;;;;;;;12.81;100.00;101630.47;10393766;28;20049;-68
2023/05/05 16:17:36;;;;;;;7.85;3.10;;;;;;;12.84;100.00;101619.75;10419270;28;20501;-68
2023/05/05 16:22:37;;;;;;;6.82;2.95;;;;;;;12.88;100.00;101614.56;10419448;28;20470;-69
2023/05/05 16:27:37;;;;;;;7.47;2.67;;;;;;;13.02;100.00;101607.59;10420050;28;20045;-70
2023/05/05 16:32:38;;;;;;;6.15;3.25;;;;;;;13.04;100.00;101597.13;10419322;28;20115;-69
2023/05/05 16:37:38;;;;;;;7.72;3.65;;;;;;;13.00;100.00;101598.72;10418745;28;20048;-66
2023/05/05 16:42:39;;;;;;;9.10;4.22;;;;;;;13.16;100.00;101587.88;10405925;28;20057;-69
2023/05/05 16:47:39;;;;;;;9.88;6.10;;;;;;;13.44;100.00;101576.72;10417746;28;20037;-69
2023/05/05 16:52:40;;;;;;;16.00;6.82;;;;;;;13.51;100.00;101571.81;10418046;28;20052;-69
2023/05/05 16:57:40;;;;;;;9.38;5.90;;;;;;;13.95;100.00;101568.16;10417212;28;20041;-69
2023/05/05 17:02:40;;;;;;;11.80;5.82;;;;;;;14.49;100.00;101546.00;10418122;28;20032;-70
2023/05/05 17:07:41;;;;;;;10.52;5.53;;;;;;;14.57;100.00;101516.16;10382948;28;20025;-69
2023/05/05 17:12:42;;;;;;;7.00;4.50;;;;;;;16.12;100.00;101533.25;10407645;28;20034;-70
2023/05/05 17:17:42;;;;;;;6.13;4.00;;;;;;;17.83;100.00;101500.09;10382645;28;20130;-70
2023/05/05 17:22:45;;;;;;;5.78;3.58;;;;;;;18.28;100.00;101484.16;10398261;28;20097;-70
2023/05/05 17:27:45;;;;;;;47.55;40.92;;;;;;;16.77;100.00;101504.91;10397728;28;20494;-69
2023/05/05 17:32:46;;;;;;;25.20;22.52;;;;;;;15.48;100.00;101529.72;10406532;28;20049;-70
2023/05/05 17:37:46;;;;;;;8.45;6.03;;;;;;;14.86;100.00;101534.13;10397889;28;20037;-70
2023/05/05 17:42:47;;;;;;;5.40;4.57;;;;;;;14.49;100.00;101547.91;10416955;28;20042;-70
2023/05/05 17:47:47;;;;;;;8.98;5.32;;;;;;;14.21;100.00;101555.44;10397409;28;20041;-70
2023/05/05 17:52:48;;;;;;;7.13;5.22;;;;;;;14.00;100.00;101567.41;10416574;28;20041;-70
2023/05/05 17:57:49;;;;;;;10.88;6.82;;;;;;;13.80;100.00;101579.91;10417256;28;20049;-70
2023/05/05 18:02:49;;;;;;;10.60;7.40;;;;;;;13.61;100.00;101584.94;10389051;28;20038;-70
2023/05/05 18:07:50;;;;;;;16.00;9.05;;;;;;;13.47;100.00;101601.06;10390750;28;20064;-70
2023/05/05 18:12:50;;;;;;;15.05;8.57;;;;;;;13.37;100.00;101622.22;10387893;28;20061;-70
2023/05/05 18:17:52;;;;;;;14.70;10.50;;;;;;;13.20;100.00;101633.28;10413378;28;20046;-70
2023/05/05 18:22:53;;;;;;;18.20;12.02;;;;;;;13.08;100.00;101608.50;10415344;28;20068;-70
2023/05/05 18:27:53;;;;;;;19.52;13.10;;;;;;;13.11;100.00;101619.91;10387820;28;20044;-69
2023/05/05 18:32:54;;;;;;;18.20;12.80;;;;;;;13.11;100.00;101624.59;10362862;28;20041;-70
2023/05/05 18:37:54;;;;;;;20.38;13.57;;;;;;;13.07;100.00;101629.78;10396563;28;20074;-71
2023/05/05 18:42:55;;;;;;;20.60;14.18;;;;;;;12.98;100.00;101624.94;10411553;28;20064;-70
2023/05/05 18:47:56;;;;;;;25.38;15.15;;;;;;;12.89;100.00;101639.16;10395107;28;20034;-71
2023/05/05 18:52:57;;;;;;;29.10;16.67;;;;;;;12.87;100.00;101637.75;10395896;28;20093;-70
2023/05/05 18:57:57;;;;;;;24.48;14.80;;;;;;;12.78;100.00;101631.81;10379079;28;20042;-70
2023/05/05 19:02:58;;;;;;;21.50;14.98;;;;;;;12.74;100.00;101649.16;10393551;28;20052;-71
2023/05/05 19:07:58;;;;;;;26.63;16.95;;;;;;;12.68;100.00;101646.28;10392923;28;20477;-70
2023/05/05 19:12:59;;;;;;;30.20;17.92;;;;;;;12.62;100.00;101655.56;10395832;28;20052;-68
2023/05/05 19:18:00;;;;;;;34.03;17.13;;;;;;;12.57;100.00;101649.09;10392575;28;20061;-69
2023/05/05 19:23:03;;;;;;;34.65;18.02;;;;;;;12.55;100.00;101657.66;10403270;28;20065;-69
2023/05/05 19:28:03;;;;;;;33.90;18.48;;;;;;;12.49;100.00;101666.94;10394074;28;20045;-70
2023/05/05 19:33:04;;;;;;;37.30;18.30;;;;;;;12.30;100.00;101642.28;10393641;28;20052;-69
2023/05/05 19:38:04;;;;;;;42.10;20.67;;;;;;;12.25;100.00;101650.47;10368634;28;20038;-68
2023/05/05 19:43:05;;;;;;;29.45;18.27;;;;;;;12.12;100.00;101678.38;10393283;28;20041;-69
2023/05/05 19:48:05;;;;;;;30.58;19.40;;;;;;;12.05;100.00;101674.91;10393281;28;20045;-67
2023/05/05 19:53:06;;;;;;;37.30;20.33;;;;;;;11.90;100.00;101667.97;10412678;28;20045;-68
2023/05/05 19:58:06;;;;;;;45.13;24.17;;;;;;;11.31;100.00;101581.75;10377775;28;20044;-68
2023/05/05 20:03:07;;;;;;;43.53;23.88;;;;;;;11.66;100.00;101666.34;10384102;28;20045;-67
2023/05/05 20:08:08;;;;;;;33.20;21.15;;;;;;;11.42;100.00;101644.28;10377624;28;20037;-69
2023/05/05 20:13:08;;;;;;;37.92;18.92;;;;;;;11.36;100.00;101658.22;10393729;28;20045;-68
2023/05/05 20:18:09;;;;;;;34.85;18.85;;;;;;;11.17;100.00;101665.75;10393340;28;20095;-69
2023/05/05 20:23:09;;;;;;;42.60;20.92;;;;;;;10.96;100.00;101659.75;10402465;28;20071;-68
2023/05/05 20:28:10;;;;;;;39.83;21.52;;;;;;;10.80;100.00;101657.69;10374566;28;20046;-69
2023/05/05 20:33:11;;;;;;;34.75;20.27;;;;;;;10.64;100.00;101661.94;10380056;28;20097;-69
2023/05/05 20:38:11;;;;;;;39.75;21.50;;;;;;;10.56;100.00;101665.03;10392400;28;20033;-68
2023/05/05 20:43:12;;;;;;;39.00;20.45;;;;;;;10.40;100.00;101656.38;10383470;28;20374;-69
2023/05/05 20:48:12;;;;;;;32.28;20.10;;;;;;;9.32;100.00;101539.72;10375083;28;20056;-69
2023/05/05 20:53:13;;;;;;;43.53;22.77;;;;;;;10.23;100.00;101658.94;10388680;28;20030;-69
2023/05/05 20:58:14;;;;;;;43.10;21.92;;;;;;;10.15;100.00;101653.75;10371421;28;20064;-68
2023/05/05 21:03:14;;;;;;;40.83;20.70;;;;;;;10.11;100.00;101660.78;10398105;28;20030;-68
2023/05/05 21:08:15;;;;;;;39.08;21.23;;;;;;;10.06;100.00;101658.72;10399693;28;20033;-68
2023/05/05 21:13:15;;;;;;;40.40;22.25;;;;;;;10.06;100.00;101671.63;10416489;28;20033;-69
2023/05/05 21:18:16;;;;;;;43.03;22.55;;;;;;;10.14;100.00;101668.56;10398054;28;20060;-68
2023/05/05 21:23:17;;;;;;;46.13;22.83;;;;;;;10.25;100.00;101670.53;10399709;28;20407;-69
2023/05/05 21:28:17;;;;;;;41.80;23.05;;;;;;;10.35;100.00;101667.25;10382020;28;20041;-70
2023/05/05 21:33:18;;;;;;;46.40;22.33;;;;;;;10.45;100.00;101669.44;10399032;28;20101;-69
2023/05/05 21:38:18;;;;;;;44.60;24.20;;;;;;;10.56;100.00;101665.88;10416050;28;20029;-68
2023/05/05 21:43:18;;;;;;;42.40;22.70;;;;;;;10.70;100.00;101672.84;10398182;28;20040;-68
2023/05/05 21:48:19;;;;;;;49.55;24.45;;;;;;;10.77;100.00;101672.78;10415206;28;20080;-68
2023/05/05 21:53:19;;;;;;;45.08;24.45;;;;;;;10.81;100.00;101662.09;10417060;28;20273;-68
2023/05/05 21:58:20;;;;;;;47.40;25.58;;;;;;;10.84;100.00;101667.16;10397676;28;20052;-69
2023/05/05 22:03:20;;;;;;;58.92;27.90;;;;;;;10.88;100.00;101657.34;10397507;28;20037;-68
2023/05/05 22:08:21;;;;;;;52.95;26.90;;;;;;;10.83;100.00;101666.31;10396919;28;20033;-68
2023/05/05 22:13:21;;;;;;;52.28;27.13;;;;;;;10.75;100.00;101661.16;10414046;28;20059;-68
2023/05/05 22:18:22;;;;;;;64.07;28.92;;;;;;;10.61;100.00;101644.00;10397761;28;20057;-68
2023/05/05 22:23:22;;;;;;;55.40;27.75;;;;;;;10.71;100.00;101657.19;10381854;28;20065;-68
2023/05/05 22:28:23;;;;;;;50.55;27.02;;;;;;;10.67;100.00;101667.84;10405827;28;20038;-68
2023/05/05 22:33:23;;;;;;;63.20;28.38;;;;;;;10.64;100.00;101664.72;10412521;28;20044;-67
2023/05/05 22:38:24;;;;;;;51.60;26.98;;;;;;;10.56;100.00;101657.63;10395025;28;20034;-69